Time;durP1;ratioP1;P1;durP2;ratioP2;P2;SDS_P1;SDS_P2;PMS_P1;PMS_P2;Temp;Humidity;BMP_temperature;BMP_pressure;BME280_temperature;BME280_humidity;BME280_pressure;Samples;Min_cycle;Max_cycle;Signal;HPM_P1;HPM_P2
2023/07/07 00:00:00;;;;;;;2.67;2.47;;;18.50;52.90;;;;;;4912007;29;20080;-46
2023/07/07 00:02:28;;;;;;;4.55;2.13;;;18.50;52.90;;;;;;4907337;29;20041;-46
2023/07/07 00:04:55;;;;;;;3.25;2.40;;;18.40;52.90;;;;;;4908079;29;20424;-48
2023/07/07 00:07:34;;;;;;;3.92;2.45;;;18.40;53.00;;;;;;4897679;29;20043;-50
2023/07/07 00:10:01;;;;;;;2.65;2.20;;;18.30;53.00;;;;;;4912132;29;20078;-46
2023/07/07 00:12:30;;;;;;;1.90;1.77;;;18.30;52.90;;;;;;4905493;29;20040;-47
2023/07/07 00:14:56;;;;;;;2.25;1.98;;;18.30;52.90;;;;;;4910917;29;20043;-49
2023/07/07 00:17:34;;;;;;;2.28;1.90;;;18.20;53.00;;;;;;4913176;29;20468;-48
2023/07/07 00:20:04;;;;;;;3.63;2.60;;;18.20;53.30;;;;;;4897879;29;20081;-47
2023/07/07 00:22:31;;;;;;;3.05;1.80;;;18.10;53.20;;;;;;4910208;29;20648;-46
2023/07/07 00:24:58;;;;;;;2.30;2.10;;;18.10;53.10;;;;;;4880399;29;20050;-50
2023/07/07 00:27:25;;;;;;;2.35;2.05;;;18.10;53.30;;;;;;4914329;29;20107;-46
2023/07/07 00:29:54;;;;;;;2.88;2.13;;;18.00;53.20;;;;;;4898398;29;20545;-50
2023/07/07 00:32:21;;;;;;;3.58;2.67;;;18.00;53.30;;;;;;4909269;29;20119;-49
2023/07/07 00:34:47;;;;;;;3.83;1.98;;;17.90;53.40;;;;;;4915301;29;20052;-46
2023/07/07 00:37:14;;;;;;;2.83;1.85;;;17.90;53.50;;;;;;4916737;29;20062;-49
2023/07/07 00:39:43;;;;;;;2.80;2.28;;;17.90;53.70;;;;;;4895434;29;20048;-48
2023/07/07 00:42:12;;;;;;;3.00;2.53;;;17.90;53.90;;;;;;4882657;29;20747;-45
2023/07/07 00:45:09;;;;;;;4.25;2.63;;;17.80;54.00;;;;;;4914912;29;20529;-46
2023/07/07 00:48:00;;;;;;;3.05;2.45;;;17.90;55.00;;;;;;4916789;29;20040;-45
2023/07/07 00:50:33;;;;;;;3.35;2.63;;;17.80;54.90;;;;;;4906960;29;20043;-46
2023/07/07 00:53:00;;;;;;;;;;;17.80;54.40;;;;;;4910856;29;20107;-49
2023/07/07 00:55:39;;;;;;;2.42;2.22;;;17.80;53.80;;;;;;4898591;29;19931;-45
2023/07/07 00:58:10;;;;;;;2.28;2.05;;;17.80;54.30;;;;;;4915329;29;20523;-46
2023/07/07 01:00:40;;;;;;;3.53;2.22;;;17.80;54.40;;;;;;4898154;29;20052;-47
2023/07/07 01:03:13;;;;;;;2.55;2.15;;;17.80;54.60;;;;;;4904296;29;20045;-47
2023/07/07 01:05:44;;;;;;;2.42;2.22;;;17.70;54.90;;;;;;4911204;29;20494;-49
2023/07/07 01:08:13;;;;;;;3.92;2.25;;;17.70;54.70;;;;;;4895778;29;20080;-47
2023/07/07 01:10:42;;;;;;;2.22;2.03;;;17.70;54.60;;;;;;4910868;29;20043;-45
2023/07/07 01:13:09;;;;;;;2.85;2.10;;;17.70;54.60;;;;;;4900424;29;20048;-47
2023/07/07 01:16:10;;;;;;;2.33;2.13;;;17.70;55.20;;;;;;4893309;29;20135;-46
2023/07/07 01:18:51;;;;;;;3.25;1.80;;;17.70;54.90;;;;;;4880740;29;20070;-48
2023/07/07 01:21:37;;;;;;;2.58;2.38;;;17.70;54.70;;;;;;4902195;29;20147;-45
2023/07/07 01:24:52;;;;;;;2.20;2.00;;;17.70;55.00;;;;;;4905076;29;20055;-49
2023/07/07 01:27:44;;;;;;;2.15;2.03;;;17.60;54.70;;;;;;4827815;29;20141;-49
2023/07/07 01:30:22;;;;;;;3.10;1.67;;;17.50;54.30;;;;;;4836753;29;20541;-46
2023/07/07 01:32:50;;;;;;;3.75;2.33;;;17.50;54.40;;;;;;4871934;29;20057;-47
2023/07/07 01:35:20;;;;;;;3.03;1.98;;;17.40;54.30;;;;;;4887282;29;20040;-47
2023/07/07 01:38:01;;;;;;;2.30;1.73;;;17.40;54.50;;;;;;4895012;29;20063;-49
2023/07/07 01:40:47;;;;;;;4.20;1.92;;;17.40;54.60;;;;;;4911492;29;20163;-46
2023/07/07 01:43:21;;;;;;;2.30;2.08;;;17.30;54.80;;;;;;4907755;29;20044;-47
2023/07/07 01:46:03;;;;;;;2.88;2.20;;;17.30;54.50;;;;;;4898069;29;20052;-47
2023/07/07 01:48:34;;;;;;;2.55;2.17;;;17.20;54.70;;;;;;4915233;29;20040;-46
2023/07/07 01:51:02;;;;;;;3.08;2.17;;;17.20;54.60;;;;;;4905434;29;20068;-47
2023/07/07 01:53:34;;;;;;;2.03;1.77;;;17.20;54.70;;;;;;4907494;29;20054;-48
2023/07/07 01:56:02;;;;;;;2.95;2.42;;;17.10;54.70;;;;;;4908692;29;20051;-47
2023/07/07 01:58:36;;;;;;;2.42;1.80;;;17.10;54.80;;;;;;4897501;29;20055;-48
2023/07/07 02:01:05;;;;;;;2.92;2.13;;;17.10;55.60;;;;;;4911708;29;20501;-46
2023/07/07 02:03:31;;;;;;;2.45;2.17;;;17.00;55.00;;;;;;4900298;29;20561;-46
2023/07/07 02:06:08;;;;;;;2.78;2.50;;;17.00;55.20;;;;;;4894701;29;20544;-47
2023/07/07 02:08:35;;;;;;;3.63;2.17;;;17.00;55.50;;;;;;4898073;29;20051;-46
2023/07/07 02:11:08;;;;;;;3.55;2.65;;;17.00;55.50;;;;;;4890545;29;20664;-47
2023/07/07 02:13:38;;;;;;;2.38;2.17;;;17.00;55.70;;;;;;4885823;29;20139;-45
2023/07/07 02:16:07;;;;;;;2.33;2.13;;;16.90;55.70;;;;;;4897378;29;20051;-48
2023/07/07 02:18:37;;;;;;;2.30;2.00;;;16.90;55.70;;;;;;4908174;29;20044;-48
2023/07/07 02:21:10;;;;;;;3.15;2.20;;;16.90;55.70;;;;;;4911449;29;20044;-47
2023/07/07 02:23:38;;;;;;;2.20;2.00;;;16.90;55.90;;;;;;4890480;29;20048;-47
2023/07/07 02:26:05;;;;;;;2.03;1.83;;;16.90;55.60;;;;;;4904254;29;20071;-48
2023/07/07 02:28:37;;;;;;;2.72;2.45;;;16.90;55.50;;;;;;4914674;29;20450;-46
2023/07/07 02:31:05;;;;;;;2.67;1.92;;;16.90;55.60;;;;;;4913546;29;20107;-46
2023/07/07 02:33:32;;;;;;;2.83;2.13;;;16.80;55.50;;;;;;4903413;29;20082;-44
2023/07/07 02:36:06;;;;;;;3.15;2.40;;;16.80;55.50;;;;;;4913768;29;20053;-45
2023/07/07 02:38:36;;;;;;;6.57;2.08;;;16.80;55.70;;;;;;4896515;29;20108;-47
2023/07/07 02:41:06;;;;;;;2.33;1.98;;;16.80;55.70;;;;;;4893902;29;20070;-49
2023/07/07 02:43:36;;;;;;;3.50;1.88;;;16.70;55.70;;;;;;4906725;29;20044;-47
2023/07/07 02:46:03;;;;;;;2.33;1.90;;;16.70;55.80;;;;;;4896367;29;20074;-47
2023/07/07 02:48:35;;;;;;;4.05;1.90;;;16.70;55.90;;;;;;4893526;29;20036;-46
2023/07/07 02:51:06;;;;;;;3.22;1.92;;;16.70;56.10;;;;;;4913363;29;20047;-47
2023/07/07 02:53:35;;;;;;;2.53;2.00;;;16.60;55.90;;;;;;4902204;29;20044;-46
2023/07/07 02:56:05;;;;;;;4.47;2.08;;;16.60;56.00;;;;;;4889641;29;20142;-46
2023/07/07 02:58:38;;;;;;;2.40;1.77;;;16.60;55.80;;;;;;4895520;29;20052;-46
2023/07/07 03:01:14;;;;;;;3.08;2.30;;;16.60;56.10;;;;;;4912428;29;20072;-45
2023/07/07 03:03:49;;;;;;;3.20;2.05;;;16.50;56.00;;;;;;4889431;29;20144;-46
2023/07/07 03:06:20;;;;;;;1.95;1.60;;;16.50;56.10;;;;;;4913145;29;20099;-47
2023/07/07 03:08:50;;;;;;;3.63;2.33;;;16.50;55.90;;;;;;4896335;29;20055;-46
2023/07/07 03:11:19;;;;;;;3.20;2.22;;;16.40;55.80;;;;;;4893976;29;20125;-46
2023/07/07 03:13:53;;;;;;;2.90;1.80;;;16.50;56.10;;;;;;4889203;29;20525;-46
2023/07/07 03:16:31;;;;;;;3.20;2.00;;;16.40;55.90;;;;;;4889525;29;20137;-45
2023/07/07 03:19:09;;;;;;;2.88;1.92;;;16.40;56.30;;;;;;4913097;29;20506;-46
2023/07/07 03:21:48;;;;;;;4.53;2.38;;;16.40;56.00;;;;;;4891994;29;20048;-45
2023/07/07 03:24:22;;;;;;;1.80;1.70;;;16.30;56.00;;;;;;4887646;29;20142;-47
2023/07/07 03:26:52;;;;;;;2.65;2.25;;;16.30;56.10;;;;;;4911020;23;20056;-48
2023/07/07 03:29:26;;;;;;;2.40;1.92;;;16.30;56.20;;;;;;4895356;29;20044;-49
2023/07/07 03:31:56;;;;;;;4.38;2.33;;;16.30;56.30;;;;;;4893502;29;20040;-51
2023/07/07 03:34:28;;;;;;;3.10;1.88;;;16.30;56.60;;;;;;4914279;29;20056;-49
2023/07/07 03:36:58;;;;;;;3.60;2.50;;;16.30;56.50;;;;;;4907739;29;20154;-50
2023/07/07 03:39:28;;;;;;;;;;;16.20;56.50;;;;;;4915660;29;20477;-50
2023/07/07 03:41:57;;;;;;;2.90;2.42;;;16.30;56.30;;;;;;4911182;29;19971;-52
2023/07/07 03:44:25;;;;;;;3.40;1.73;;;16.20;56.00;;;;;;4907445;29;20047;-50
2023/07/07 03:46:52;;;;;;;5.35;3.05;;;16.20;56.50;;;;;;4915075;29;20062;-50
2023/07/07 03:49:20;;;;;;;3.47;2.55;;;16.20;56.70;;;;;;4914850;29;20051;-50
2023/07/07 03:51:49;;;;;;;3.88;1.80;;;16.20;56.80;;;;;;4912941;29;20048;-49
2023/07/07 03:54:20;;;;;;;2.47;2.28;;;16.10;57.00;;;;;;4912976;29;20059;-47
2023/07/07 03:56:46;;;;;;;5.25;2.53;;;16.20;57.20;;;;;;4932116;29;20052;-49
2023/07/07 03:59:15;;;;;;;3.88;2.30;;;16.20;57.30;;;;;;4914680;29;20047;-48
2023/07/07 04:01:42;;;;;;;4.32;2.72;;;16.20;57.40;;;;;;4930613;29;20086;-50
2023/07/07 04:04:13;;;;;;;2.60;2.38;;;16.20;57.50;;;;;;4932999;29;20044;-49
2023/07/07 04:06:42;;;;;;;3.22;1.80;;;16.20;57.80;;;;;;4936639;29;20075;-50
2023/07/07 04:09:13;;;;;;;5.80;1.92;;;16.20;57.70;;;;;;4936480;29;20090;-50
2023/07/07 04:11:43;;;;;;;3.67;1.90;;;16.20;57.70;;;;;;4933489;29;20087;-49
2023/07/07 04:14:09;;;;;;;2.38;2.15;;;16.20;57.70;;;;;;4918045;29;20492;-46
2023/07/07 04:16:36;;;;;;;2.90;2.20;;;16.20;57.80;;;;;;4919482;29;20067;-45
2023/07/07 04:19:05;;;;;;;5.78;2.00;;;16.20;57.90;;;;;;4917738;29;20039;-48
2023/07/07 04:21:34;;;;;;;1.85;1.67;;;16.20;57.90;;;;;;4910005;29;20048;-47
2023/07/07 04:24:04;;;;;;;4.80;2.10;;;16.20;58.10;;;;;;4927241;29;20054;-50
2023/07/07 04:26:33;;;;;;;3.75;2.08;;;16.30;58.40;;;;;;4933823;29;20087;-49
2023/07/07 04:29:00;;;;;;;5.10;2.00;;;16.30;58.20;;;;;;4935218;29;20087;-46
2023/07/07 04:31:28;;;;;;;3.50;1.95;;;16.30;58.40;;;;;;4930334;29;20043;-50
2023/07/07 04:33:55;;;;;;;2.22;2.03;;;16.30;58.50;;;;;;4932630;29;20142;-45
2023/07/07 04:36:26;;;;;;;3.28;2.50;;;16.30;58.50;;;;;;4918811;29;20051;-47
2023/07/07 04:38:53;;;;;;;3.85;2.03;;;16.30;58.70;;;;;;4934133;29;20162;-50
2023/07/07 04:41:22;;;;;;;4.38;2.33;;;16.40;58.90;;;;;;4915266;29;20245;-46
2023/07/07 04:43:56;;;;;;;3.17;1.98;;;16.40;59.10;;;;;;4934288;29;20601;-45
2023/07/07 04:46:31;;;;;;;5.40;2.00;;;16.40;59.30;;;;;;4928878;29;20056;-48
2023/07/07 04:49:06;;;;;;;3.85;2.17;;;16.40;59.60;;;;;;4929906;29;20078;-47
2023/07/07 04:51:38;;;;;;;2.80;1.80;;;16.50;60.00;;;;;;4930099;29;20043;-48
2023/07/07 04:54:06;;;;;;;4.93;2.20;;;16.50;59.80;;;;;;4929922;29;20103;-49
2023/07/07 04:56:33;;;;;;;5.22;2.03;;;16.50;59.50;;;;;;4935494;29;20143;-45
2023/07/07 04:59:00;;;;;;;4.35;1.90;;;16.60;59.70;;;;;;4929805;29;20048;-46
2023/07/07 05:01:29;;;;;;;6.72;2.50;;;16.60;59.90;;;;;;4934127;29;20051;-49
2023/07/07 05:04:01;;;;;;;5.78;1.95;;;16.60;60.20;;;;;;4928103;29;20510;-50
2023/07/07 05:06:34;;;;;;;2.53;1.50;;;16.70;60.70;;;;;;4927536;29;20067;-49
2023/07/07 05:09:03;;;;;;;2.80;2.03;;;16.70;60.40;;;;;;4924315;29;20103;-46
2023/07/07 05:11:32;;;;;;;5.18;2.90;;;16.80;60.50;;;;;;4921378;29;20044;-49
2023/07/07 05:13:59;;;;;;;6.15;2.53;;;16.80;60.80;;;;;;4925291;29;20078;-49
2023/07/07 05:16:31;;;;;;;5.50;2.55;;;16.90;61.00;;;;;;4932499;29;20134;-49
2023/07/07 05:19:00;;;;;;;4.57;2.50;;;16.90;61.50;;;;;;4933555;29;20048;-50
2023/07/07 05:21:27;;;;;;;3.35;2.30;;;17.00;61.20;;;;;;4933139;29;20043;-50
2023/07/07 05:23:54;;;;;;;6.70;3.08;;;17.10;61.40;;;;;;4926599;29;20078;-50
2023/07/07 05:26:27;;;;;;;4.82;2.10;;;17.10;61.50;;;;;;4932613;29;20044;-48
2023/07/07 05:28:54;;;;;;;5.38;2.25;;;17.20;61.70;;;;;;4929384;29;20054;-49
2023/07/07 05:31:20;;;;;;;4.10;3.08;;;17.30;61.70;;;;;;4930767;29;20545;-50
2023/07/07 05:33:48;;;;;;;5.10;2.33;;;17.30;61.70;;;;;;4927715;29;20389;-49
2023/07/07 05:36:14;;;;;;;7.80;2.95;;;17.40;61.80;;;;;;4909433;29;20051;-49
2023/07/07 05:38:41;;;;;;;8.88;2.70;;;17.40;61.80;;;;;;4926130;29;20155;-49
2023/07/07 05:41:09;;;;;;;7.90;3.22;;;17.50;61.90;;;;;;4928403;29;20044;-48
2023/07/07 05:43:36;;;;;;;5.47;2.78;;;17.60;62.10;;;;;;4926122;29;20044;-45
2023/07/07 05:46:06;;;;;;;7.65;3.30;;;17.60;61.90;;;;;;4925739;29;20111;-50
2023/07/07 05:48:33;;;;;;;4.97;2.40;;;17.70;62.10;;;;;;4923914;29;20048;-50
2023/07/07 05:51:03;;;;;;;6.57;3.38;;;17.70;62.70;;;;;;4932753;29;20044;-49
2023/07/07 05:53:30;;;;;;;4.03;2.47;;;17.80;61.90;;;;;;4927320;29;20043;-50
2023/07/07 05:56:09;;;;;;;5.15;2.47;;;17.90;61.60;;;;;;4915303;29;20047;-49
2023/07/07 05:58:36;;;;;;;5.18;2.50;;;17.90;62.70;;;;;;4923695;29;20048;-49
2023/07/07 06:01:03;;;;;;;6.63;2.53;;;18.00;62.10;;;;;;4928937;29;20666;-49
2023/07/07 06:03:30;;;;;;;4.43;3.05;;;18.10;62.00;;;;;;4927228;29;20098;-46
2023/07/07 06:05:58;;;;;;;4.55;2.65;;;18.20;61.80;;;;;;4932329;29;20032;-49
2023/07/07 06:08:24;;;;;;;6.78;2.80;;;18.20;61.50;;;;;;4931034;29;20048;-49
2023/07/07 06:10:52;;;;;;;5.53;2.38;;;18.30;61.10;;;;;;4927972;29;20066;-47
2023/07/07 06:13:23;;;;;;;5.07;2.40;;;18.30;61.30;;;;;;4926291;29;20063;-46
2023/07/07 06:15:53;;;;;;;4.18;2.78;;;18.40;61.10;;;;;;4926538;29;20051;-46
2023/07/07 06:18:21;;;;;;;4.28;2.28;;;18.50;60.90;;;;;;4926226;29;20552;-52
2023/07/07 06:20:49;;;;;;;5.43;3.05;;;18.60;60.80;;;;;;4924419;29;20039;-47
2023/07/07 06:23:16;;;;;;;5.03;2.22;;;18.70;61.20;;;;;;4923287;29;20143;-49
2023/07/07 06:25:42;;;;;;;3.53;2.53;;;18.70;60.60;;;;;;4924959;29;20091;-53
2023/07/07 06:28:09;;;;;;;4.45;2.88;;;18.80;60.90;;;;;;4910294;29;20087;-52
2023/07/07 06:30:36;;;;;;;5.85;2.38;;;18.90;61.00;;;;;;4924426;29;20048;-52
2023/07/07 06:33:03;;;;;;;7.43;2.65;;;19.00;60.40;;;;;;4924502;29;20039;-45
2023/07/07 06:35:29;;;;;;;8.52;2.97;;;19.00;60.00;;;;;;4925835;29;20075;-46
2023/07/07 06:37:56;;;;;;;4.32;2.92;;;19.10;60.10;;;;;;4928241;29;20118;-48
2023/07/07 06:40:23;;;;;;;4.75;2.28;;;19.20;59.90;;;;;;4930368;29;20074;-49
2023/07/07 06:42:53;;;;;;;4.80;2.70;;;19.30;59.70;;;;;;4922890;29;20044;-49
2023/07/07 06:45:19;;;;;;;4.90;2.47;;;19.40;59.60;;;;;;4916045;29;20040;-47
2023/07/07 06:47:46;;;;;;;4.43;2.13;;;19.40;59.50;;;;;;4923354;29;20692;-46
2023/07/07 06:50:33;;;;;;;6.57;2.47;;;19.50;59.20;;;;;;4924997;29;20060;-49
2023/07/07 06:53:02;;;;;;;4.68;2.42;;;19.60;59.10;;;;;;4925663;29;20071;-50
2023/07/07 06:55:29;;;;;;;3.08;2.10;;;19.70;58.90;;;;;;4929091;29;20055;-51
2023/07/07 06:57:56;;;;;;;5.70;2.15;;;19.70;58.90;;;;;;4923099;29;20135;-51
2023/07/07 07:00:23;;;;;;;4.63;2.15;;;19.80;59.00;;;;;;4926792;29;20056;-50
2023/07/07 07:02:49;;;;;;;4.55;2.20;;;19.90;58.80;;;;;;4907479;29;20103;-50
2023/07/07 07:05:16;;;;;;;4.30;2.47;;;20.00;58.70;;;;;;4926501;29;20039;-50
2023/07/07 07:07:43;;;;;;;3.95;2.35;;;20.10;58.80;;;;;;4929418;29;20074;-51
2023/07/07 07:10:10;;;;;;;4.13;2.53;;;20.10;58.20;;;;;;4927882;29;20040;-50
2023/07/07 07:12:37;;;;;;;5.43;2.67;;;20.20;58.10;;;;;;4922608;29;20055;-51
2023/07/07 07:15:04;;;;;;;4.70;2.08;;;20.30;57.60;;;;;;4924066;29;20068;-49
2023/07/07 07:17:31;;;;;;;5.57;2.05;;;20.40;57.60;;;;;;4924966;29;20054;-50
2023/07/07 07:20:02;;;;;;;4.35;2.28;;;20.40;57.60;;;;;;4933024;29;20043;-50
2023/07/07 07:22:29;;;;;;;4.57;2.20;;;20.50;57.20;;;;;;4928443;29;20069;-48
2023/07/07 07:24:55;;;;;;;3.67;1.98;;;20.60;56.90;;;;;;4928421;29;20036;-50
2023/07/07 07:27:22;;;;;;;4.95;2.20;;;20.70;56.70;;;;;;4925329;29;20123;-49
2023/07/07 07:29:51;;;;;;;5.72;2.70;;;20.80;56.80;;;;;;4928653;29;20091;-49
2023/07/07 07:32:18;;;;;;;3.10;2.28;;;20.80;56.60;;;;;;4931874;29;20120;-50
2023/07/07 07:34:45;;;;;;;7.13;2.13;;;20.90;56.30;;;;;;4924665;29;20053;-49
2023/07/07 07:37:12;;;;;;;5.15;2.00;;;21.00;56.20;;;;;;4924827;29;20099;-50
2023/07/07 07:39:38;;;;;;;10.20;2.97;;;21.10;56.00;;;;;;4930920;29;20048;-49
2023/07/07 07:42:05;;;;;;;3.63;2.10;;;21.10;56.00;;;;;;4935795;29;20082;-50
2023/07/07 07:44:32;;;;;;;2.92;1.63;;;21.20;54.80;;;;;;4922171;29;20057;-51
2023/07/07 07:47:01;;;;;;;3.45;1.70;;;21.30;54.80;;;;;;4929719;29;20043;-50
2023/07/07 07:49:28;;;;;;;5.57;2.40;;;21.30;54.50;;;;;;4932824;29;20040;-49
2023/07/07 07:51:55;;;;;;;2.58;1.98;;;21.40;54.70;;;;;;4927098;29;20122;-50
2023/07/07 07:54:23;;;;;;;4.38;1.98;;;21.50;54.50;;;;;;4927688;29;20052;-50
2023/07/07 07:56:51;;;;;;;5.15;2.40;;;21.60;53.80;;;;;;4927373;29;20039;-49
2023/07/07 07:59:17;;;;;;;3.92;1.90;;;21.60;53.50;;;;;;4933072;29;20039;-50
2023/07/07 08:01:47;;;;;;;4.18;1.88;;;21.70;53.10;;;;;;4930774;29;20043;-51
2023/07/07 08:04:14;;;;;;;7.00;2.22;;;21.80;53.20;;;;;;4929777;29;20048;-51
2023/07/07 08:06:42;;;;;;;4.28;1.98;;;21.90;53.10;;;;;;4926079;29;20039;-49
2023/07/07 08:09:11;;;;;;;5.03;1.98;;;21.90;52.30;;;;;;4924940;29;20126;-50
2023/07/07 08:11:40;;;;;;;4.60;1.90;;;22.00;52.50;;;;;;4930932;29;20390;-50
2023/07/07 08:14:10;;;;;;;6.30;1.70;;;22.10;52.60;;;;;;4929917;29;20062;-51
2023/07/07 08:16:37;;;;;;;4.13;1.63;;;22.20;52.10;;;;;;4928887;29;20047;-51
2023/07/07 08:19:04;;;;;;;2.97;1.40;;;22.20;51.90;;;;;;4928171;29;20493;-51
2023/07/07 08:21:36;;;;;;;1.60;1.42;;;22.30;51.60;;;;;;4928823;29;20111;-49
2023/07/07 08:24:05;;;;;;;5.63;2.03;;;22.40;51.70;;;;;;4930605;29;20513;-50
2023/07/07 08:26:32;;;;;;;1.88;1.45;;;22.50;51.10;;;;;;4928358;29;20139;-49
2023/07/07 08:28:59;;;;;;;4.03;2.00;;;22.60;50.90;;;;;;4929007;29;20036;-48
2023/07/07 08:31:26;;;;;;;3.10;1.73;;;22.70;51.00;;;;;;4927176;29;20044;-50
2023/07/07 08:33:53;;;;;;;2.08;1.88;;;22.70;51.30;;;;;;4928272;29;20045;-51
2023/07/07 08:36:28;;;;;;;2.95;1.85;;;22.80;51.70;;;;;;4927155;29;20123;-50
2023/07/07 08:38:55;;;;;;;3.60;2.53;;;22.90;51.30;;;;;;4929355;29;20138;-51
2023/07/07 08:41:22;;;;;;;2.53;1.83;;;23.00;51.80;;;;;;4925007;29;20079;-47
2023/07/07 08:43:49;;;;;;;4.10;2.38;;;23.10;51.30;;;;;;4916108;29;20122;-51
2023/07/07 08:46:26;;;;;;;2.63;1.50;;;23.10;50.50;;;;;;4934153;29;20508;-50
2023/07/07 08:48:59;;;;;;;5.22;1.95;;;23.20;50.50;;;;;;4928159;29;20059;-50
2023/07/07 08:51:36;;;;;;;2.53;1.75;;;23.30;49.40;;;;;;4931477;29;20051;-50
2023/07/07 08:54:12;;;;;;;2.45;1.65;;;23.30;49.90;;;;;;4929826;29;20126;-50
2023/07/07 08:56:53;;;;;;;2.15;1.60;;;23.50;49.10;;;;;;4930993;29;20134;-51
2023/07/07 08:59:27;;;;;;;5.35;2.15;;;23.50;48.40;;;;;;4932929;29;20385;-49
2023/07/07 09:02:20;;;;;;;1.95;1.30;;;23.50;48.00;;;;;;4934488;29;20043;-51
2023/07/07 09:05:05;;;;;;;3.97;1.70;;;23.70;47.70;;;;;;4931469;29;20051;-51
2023/07/07 09:08:25;;;;;;;2.85;1.50;;;23.70;47.90;;;;;;4932536;29;20044;-49
2023/07/07 09:11:32;;;;;;;2.63;1.58;;;23.80;47.80;;;;;;4894836;29;20060;-51
2023/07/07 09:13:59;;;;;;;2.17;1.50;;;23.90;48.10;;;;;;4926720;29;20543;-50
2023/07/07 09:16:34;;;;;;;2.33;1.42;;;24.00;48.60;;;;;;4929767;29;20071;-49
2023/07/07 09:19:11;;;;;;;3.22;1.50;;;24.00;48.40;;;;;;4934946;29;20126;-49
2023/07/07 09:22:09;;;;;;;3.50;1.63;;;24.10;46.30;;;;;;4933391;29;20071;-51
2023/07/07 09:25:02;;;;;;;1.92;1.48;;;24.20;45.50;;;;;;4926783;29;20047;-51
2023/07/07 09:27:39;;;;;;;2.33;1.85;;;24.30;45.10;;;;;;4916400;29;20051;-49
2023/07/07 09:30:26;;;;;;;1.98;1.45;;;24.30;45.10;;;;;;4935458;29;20509;-49
2023/07/07 09:32:53;;;;;;;3.03;1.55;;;24.40;44.90;;;;;;4915220;29;20134;-51
2023/07/07 09:35:22;;;;;;;3.80;1.60;;;24.50;44.60;;;;;;4933763;29;20059;-50
2023/07/07 09:38:33;;;;;;;1.65;1.40;;;24.60;44.40;;;;;;4931895;29;20492;-49
2023/07/07 09:41:17;;;;;;;1.83;1.38;;;24.70;44.40;;;;;;4922768;29;20099;-51
2023/07/07 09:44:05;;;;;;;2.45;1.30;;;24.70;43.30;;;;;;4922483;29;20103;-49
2023/07/07 09:46:46;;;;;;;1.27;1.17;;;24.80;43.60;;;;;;4932277;29;20048;-50
2023/07/07 09:52:26;;;;;;;1.83;1.60;;;24.90;42.60;;;;;;4883795;29;20108;-44
2023/07/07 09:54:54;;;;;;;2.22;1.38;;;25.10;43.40;;;;;;4860543;29;20148;-47
2023/07/07 09:57:29;;;;;;;2.28;1.40;;;25.10;43.30;;;;;;4867075;29;20507;-46
2023/07/07 09:59:58;;;;;;;1.63;1.52;;;25.20;42.10;;;;;;4874594;29;20116;-47
2023/07/07 10:02:26;;;;;;;4.05;1.55;;;25.30;41.90;;;;;;4874874;29;20164;-46
2023/07/07 10:05:06;;;;;;;1.38;1.15;;;25.30;42.30;;;;;;4863865;29;20120;-47
2023/07/07 10:07:37;;;;;;;3.28;1.35;;;25.40;42.20;;;;;;4876478;29;20698;-44
2023/07/07 10:10:05;;;;;;;1.38;1.27;;;25.50;41.90;;;;;;4876176;29;20073;-46
2023/07/07 10:12:32;;;;;;;2.30;1.52;;;25.60;41.10;;;;;;4868344;29;20046;-48
2023/07/07 10:15:28;;;;;;;2.83;1.48;;;25.60;40.80;;;;;;4876375;29;20049;-47
2023/07/07 10:18:02;;;;;;;1.58;1.23;;;25.70;41.70;;;;;;4876324;29;20073;-48
2023/07/07 10:20:30;;;;;;;3.40;1.80;;;25.80;40.10;;;;;;4872275;29;20049;-47
2023/07/07 10:22:56;;;;;;;2.72;1.65;;;25.80;41.00;;;;;;4865016;29;20044;-47
2023/07/07 10:25:25;;;;;;;1.95;1.73;;;25.90;40.90;;;;;;4886089;29;20123;-46
2023/07/07 10:27:55;;;;;;;1.92;1.65;;;25.90;40.60;;;;;;4888477;29;20044;-48
2023/07/07 10:30:21;;;;;;;1.95;1.85;;;26.00;40.50;;;;;;4888163;29;20127;-50
2023/07/07 10:32:51;;;;;;;2.67;1.80;;;26.00;40.50;;;;;;4866288;29;20048;-47
2023/07/07 10:35:20;;;;;;;3.58;2.30;;;26.10;40.30;;;;;;4886347;29;20152;-50
2023/07/07 10:37:47;;;;;;;2.63;2.28;;;26.20;40.40;;;;;;4871116;29;20041;-47
2023/07/07 10:40:21;;;;;;;2.53;1.85;;;26.30;39.80;;;;;;4876606;29;20045;-48
2023/07/07 10:42:56;;;;;;;2.47;1.70;;;26.30;39.60;;;;;;4882813;29;20103;-50
2023/07/07 10:45:24;;;;;;;2.47;1.85;;;26.40;39.30;;;;;;4886697;29;20121;-51
2023/07/07 10:47:51;;;;;;;2.67;1.77;;;26.50;39.70;;;;;;4888570;29;20040;-49
2023/07/07 10:50:21;;;;;;;2.20;1.95;;;26.50;38.50;;;;;;4886091;29;20051;-50
2023/07/07 10:52:58;;;;;;;2.70;2.00;;;26.60;37.60;;;;;;4881422;29;20053;-47
2023/07/07 10:55:39;;;;;;;4.15;2.30;;;26.60;38.00;;;;;;4887839;29;20036;-48
2023/07/07 10:58:59;;;;;;;3.85;3.45;;;26.70;37.60;;;;;;4886122;29;20049;-51
2023/07/07 11:01:42;;;;;;;2.28;1.67;;;26.80;38.20;;;;;;4843388;29;20061;-50
2023/07/07 11:04:27;;;;;;;4.18;2.00;;;26.80;38.80;;;;;;4862545;29;20459;-47
2023/07/07 11:07:17;;;;;;;2.70;2.00;;;26.90;38.80;;;;;;4868998;29;20405;-49
2023/07/07 11:09:56;;;;;;;2.55;2.28;;;27.00;38.80;;;;;;4872420;29;20057;-51
2023/07/07 11:12:40;;;;;;;2.75;1.55;;;27.10;39.00;;;;;;4869868;29;20044;-51
2023/07/07 11:15:21;;;;;;;4.95;2.33;;;27.20;37.30;;;;;;4877280;29;20410;-51
2023/07/07 11:18:16;;;;;;;4.80;2.92;;;27.20;36.90;;;;;;4875581;29;20045;-48
2023/07/07 11:21:07;;;;;;;5.07;2.67;;;27.30;36.70;;;;;;4867252;29;20088;-50
2023/07/07 11:23:59;;;;;;;2.45;1.63;;;27.40;36.90;;;;;;4868319;29;20404;-49
2023/07/07 11:26:35;;;;;;;3.25;2.05;;;27.50;37.40;;;;;;4875212;29;20116;-50
2023/07/07 11:29:23;;;;;;;5.28;2.03;;;27.50;37.20;;;;;;4885021;29;20074;-50
2023/07/07 11:31:49;;;;;;;3.25;2.22;;;27.60;37.30;;;;;;4871562;29;20067;-50
2023/07/07 11:34:43;;;;;;;3.80;2.50;;;27.70;36.80;;;;;;4871289;29;20037;-50
2023/07/07 11:37:09;;;;;;;4.25;2.20;;;27.70;36.00;;;;;;4875653;29;20041;-51
2023/07/07 11:39:42;;;;;;;2.92;2.38;;;27.80;36.70;;;;;;4872257;29;20128;-51
2023/07/07 11:42:41;;;;;;;2.00;1.80;;;27.80;36.00;;;;;;4866706;29;20041;-50
2023/07/07 11:45:31;;;;;;;3.80;2.38;;;27.90;36.80;;;;;;4870332;29;20395;-51
2023/07/07 11:48:30;;;;;;;2.83;2.03;;;27.90;36.60;;;;;;4875946;29;20061;-51
2023/07/07 11:51:15;;;;;;;3.25;2.13;;;28.00;36.40;;;;;;4849462;29;20059;-50
2023/07/07 11:54:02;;;;;;;4.32;1.75;;;28.10;36.50;;;;;;4877251;29;20041;-51
2023/07/07 11:56:38;;;;;;;4.35;2.00;;;28.20;34.80;;;;;;4874223;29;20537;-47
2023/07/07 11:59:25;;;;;;;2.67;1.98;;;28.30;35.50;;;;;;4858862;29;20581;-51
2023/07/07 12:01:55;;;;;;;3.10;2.05;;;28.30;35.10;;;;;;4874951;29;20418;-46
2023/07/07 12:04:33;;;;;;;2.55;2.05;;;28.40;34.90;;;;;;4871823;29;20091;-51
2023/07/07 12:07:33;;;;;;;2.92;1.90;;;28.50;34.50;;;;;;4869543;29;20037;-51
2023/07/07 12:10:26;;;;;;;3.00;1.85;;;28.60;34.40;;;;;;4863075;29;20056;-48
2023/07/07 12:13:10;;;;;;;3.60;2.22;;;28.70;34.70;;;;;;4878640;29;20387;-51
2023/07/07 12:15:52;;;;;;;2.65;1.90;;;28.80;34.10;;;;;;4878000;29;20057;-51
2023/07/07 12:18:29;;;;;;;3.83;2.00;;;28.80;32.70;;;;;;4879833;29;20049;-50
2023/07/07 12:21:16;;;;;;;3.03;2.22;;;28.90;31.80;;;;;;4878821;29;20037;-51
2023/07/07 12:24:10;;;;;;;3.28;1.88;;;29.00;32.00;;;;;;4868230;29;20049;-50
2023/07/07 12:26:44;;;;;;;2.55;1.95;;;29.10;32.60;;;;;;4879351;29;20048;-45
2023/07/07 12:29:13;;;;;;;4.57;2.40;;;29.20;32.00;;;;;;4879029;29;20049;-50
2023/07/07 12:31:40;;;;;;;2.78;2.30;;;29.20;32.80;;;;;;4877854;29;20075;-47
2023/07/07 12:34:37;;;;;;;3.65;2.45;;;29.40;31.90;;;;;;4870854;29;20049;-51
2023/07/07 12:37:12;;;;;;;2.33;1.92;;;29.40;30.10;;;;;;4872010;29;20056;-50
2023/07/07 12:39:51;;;;;;;1.83;1.70;;;29.50;31.60;;;;;;4878147;29;20044;-51
2023/07/07 12:42:18;;;;;;;3.58;2.13;;;29.60;31.40;;;;;;4875951;29;20542;-51
2023/07/07 12:44:45;;;;;;;2.53;2.22;;;29.60;31.50;;;;;;4870003;29;20048;-50
2023/07/07 12:47:26;;;;;;;2.83;2.38;;;29.70;30.00;;;;;;4877853;29;20551;-50
2023/07/07 12:50:01;;;;;;;3.45;1.83;;;29.80;29.30;;;;;;4876680;29;20051;-49
2023/07/07 12:52:41;;;;;;;1.90;1.58;;;30.00;30.10;;;;;;4866831;29;20048;-50
2023/07/07 12:55:28;;;;;;;3.35;1.75;;;30.10;29.00;;;;;;4876267;29;20733;-47
2023/07/07 12:58:07;;;;;;;3.78;1.98;;;30.20;29.60;;;;;;4878289;29;20073;-50
2023/07/07 13:00:38;;;;;;;3.58;1.85;;;30.30;30.10;;;;;;4877853;29;20057;-50
2023/07/07 13:03:11;;;;;;;3.50;1.80;;;30.40;29.20;;;;;;4873930;29;20053;-50
2023/07/07 13:05:49;;;;;;;4.20;2.15;;;30.40;29.40;;;;;;4863686;29;20045;-51
2023/07/07 13:08:36;;;;;;;2.42;2.13;;;30.50;30.00;;;;;;4873501;29;20033;-51
2023/07/07 13:11:15;;;;;;;3.63;2.25;;;30.60;30.00;;;;;;4876424;29;20045;-51
2023/07/07 13:13:45;;;;;;;2.13;1.92;;;30.70;30.10;;;;;;4872716;29;20083;-49
2023/07/07 13:16:22;;;;;;;3.40;2.10;;;30.80;29.40;;;;;;4870789;29;20041;-49
2023/07/07 13:18:49;;;;;;;2.83;1.75;;;30.90;29.30;;;;;;4876209;29;20510;-52
2023/07/07 13:21:17;;;;;;;2.88;1.92;;;31.10;29.50;;;;;;4877572;29;20056;-51